Bf Caroda — V2CV5 — position and weather

sailwx.info

Track history (hours):
 
Tides and Currents Weather Stations Pressure Air Temp Water Temp Dewpoint Dewpoint Depression Visibility Wind Speed Wind Dir Waves Ship Positions

Bf Caroda

Last reported at 2017-Mar-06 12:19 UTC. Time now 2017-Mar-26 20:39 UTC.
Position N 36°10' W 005°25'.
Warning: this ship's position is 20 days out of date.

Length 134 m; draft 6.7 m.

Type: Cargo ship. MMSI: 304678000.

Date/timePositionNaut miles runAvg speedWind from/ knotsBaromVisibWave heightAir tempDewpointWater temp
2017-Mar-06 12:19N 36°10' W 005°25'0 0.0
2017-Mar-06 11:31N 36°10' W 005°25'0 0.0
2017-Mar-06 10:33N 36°10' W 005°25'0 0.0
2017-Mar-06 09:15N 36°10' W 005°25'0 0.0
2017-Mar-06 08:33N 36°10' W 005°25'0 0.0
2017-Mar-06 07:31N 36°10' W 005°25'0 0.0
2017-Mar-06 06:32N 36°10' W 005°25'0 0.0
2017-Mar-06 05:25N 36°10' W 005°25'0 0.0
2017-Mar-06 04:31N 36°10' W 005°25'0 0.0
2017-Mar-06 03:27N 36°10' W 005°25'0 0.0
2017-Mar-06 02:33N 36°10' W 005°25'0 0.0
2017-Mar-06 01:33N 36°10' W 005°25'0 0.0
2017-Mar-06 00:32N 36°10' W 005°25'0 0.0
2017-Mar-05 23:32N 36°10' W 005°26'0 0.0
2017-Mar-05 22:33N 36°10' W 005°26'3 3.3
2017-Mar-05 21:33N 36°07' W 005°23'9 9.4
2017-Mar-05 20:33N 36°04' W 005°12'1212.3
2017-Mar-05 19:33N 36°05' W 004°57'  
2017-Mar-03 02:21N 36°34' E 012°52'1415.1
2017-Mar-03 01:25N 36°26' E 013°07'1314.3
2017-Mar-03 00:32N 36°19' E 013°20'1515.2
2017-Mar-02 23:33N 36°11' E 013°35'1615.3
2017-Mar-02 22:33N 36°02' E 013°51'1514.8
2017-Mar-02 21:33N 35°54' E 014°06'1514.6
2017-Mar-02 20:33N 35°46' E 014°21'1414.4
2017-Mar-02 19:33N 35°44' E 014°39'9 8.7
2017-Mar-02 18:29N 35°47' E 014°50'0 0.0
2017-Mar-02 09:30N 35°47' E 014°50'0 0.0
2017-Mar-02 08:33N 35°47' E 014°50'0 0.0
2017-Mar-02 07:33N 35°47' E 014°50'0 0.0
2017-Mar-02 06:17N 35°47' E 014°50'0 0.0
2017-Mar-02 04:25N 35°47' E 014°50'0 0.0
2017-Mar-02 03:25N 35°47' E 014°50'0 0.0
2017-Mar-02 02:33N 35°47' E 014°50'0 0.0
2017-Mar-02 01:33N 35°47' E 014°50'0 0.0
2017-Mar-01 17:05N 35°47' E 014°50'0 0.0
2017-Mar-01 11:33N 35°47' E 014°50'0 0.0
2017-Mar-01 06:31N 35°47' E 014°50'0 0.0
2017-Mar-01 05:27N 35°47' E 014°50'0 0.0
2017-Mar-01 04:30N 35°47' E 014°50'0 0.0
2017-Mar-01 02:08N 35°47' E 014°50'0 0.1
2017-Mar-01 01:32N 35°47' E 014°50'0 0.0
2017-Feb-28 15:33N 35°47' E 014°50'0 0.0
2017-Feb-26 14:15N 35°47' E 014°50'0 0.0
2017-Feb-26 13:33N 35°47' E 014°50'0 0.0
2017-Feb-26 12:32N 35°47' E 014°50'0 0.0
2017-Feb-25 18:27N 35°47' E 014°50'0 0.0
2017-Feb-25 17:15N 35°47' E 014°50'0 0.0
2017-Feb-25 16:32N 35°47' E 014°50'0 0.0
2017-Feb-25 15:32N 35°47' E 014°50'0 0.0
2017-Feb-25 14:20N 35°47' E 014°50'0 0.0
2017-Feb-25 13:25N 35°47' E 014°50'0 0.0
2017-Feb-25 12:28N 35°47' E 014°50'0 0.0
2017-Feb-25 08:11N 35°47' E 014°50'0 0.0
2017-Feb-25 06:28N 35°47' E 014°50'0 0.0
2017-Feb-25 05:25N 35°47' E 014°50'0 0.0
2017-Feb-25 04:33N 35°47' E 014°50'0 0.1
2017-Feb-25 03:30N 35°47' E 014°50'0 0.0
2017-Feb-25 02:32N 35°47' E 014°50'0 0.0
2017-Feb-25 01:32N 35°47' E 014°50'0 0.0
2017-Feb-25 00:32N 35°47' E 014°50'0 0.0
2017-Feb-24 23:31N 35°47' E 014°50'0 0.0
2017-Feb-24 22:31N 35°47' E 014°50'0 0.0
2017-Feb-24 21:33N 35°47' E 014°50'0 0.0
2017-Feb-24 20:33N 35°47' E 014°50'0 0.0
2017-Feb-24 19:32N 35°47' E 014°50'0 0.0
2017-Feb-24 18:32N 35°47' E 014°50'0 0.0
2017-Feb-24 17:32N 35°47' E 014°50'0 0.0
2017-Feb-24 16:31N 35°47' E 014°50'0 0.0
2017-Feb-24 15:31N 35°47' E 014°50'0 0.1
2017-Feb-24 14:33N 35°47' E 014°50'0 0.0
2017-Feb-24 13:33N 35°47' E 014°50'0 0.0
2017-Feb-24 12:32N 35°47' E 014°50'  
Track history (hours):
 
Tides and Currents Weather Stations Pressure Air Temp Water Temp Dewpoint Dewpoint Depression Visibility Wind Speed Wind Dir Waves Ship Positions

Bf Caroda

Last reported at 2017-Mar-06 12:19 UTC. Time now 2017-Mar-26 20:39 UTC.
Position N 36°10' W 005°25'.
Warning: this ship's position is 20 days out of date.

Length 134 m; draft 6.7 m.

Type: Cargo ship. MMSI: 304678000.

Date/timePositionNaut miles runAvg speedWind from/ knotsBaromVisibWave heightAir tempDewpointWater temp
2017-Mar-06 12:19N 36°10' W 005°25'0 0.0
2017-Mar-06 11:31N 36°10' W 005°25'0 0.0
2017-Mar-06 10:33N 36°10' W 005°25'0 0.0
2017-Mar-06 09:15N 36°10' W 005°25'0 0.0
2017-Mar-06 08:33N 36°10' W 005°25'0 0.0
2017-Mar-06 07:31N 36°10' W 005°25'0 0.0
2017-Mar-06 06:32N 36°10' W 005°25'0 0.0
2017-Mar-06 05:25N 36°10' W 005°25'0 0.0
2017-Mar-06 04:31N 36°10' W 005°25'0 0.0
2017-Mar-06 03:27N 36°10' W 005°25'0 0.0
2017-Mar-06 02:33N 36°10' W 005°25'0 0.0
2017-Mar-06 01:33N 36°10' W 005°25'0 0.0
2017-Mar-06 00:32N 36°10' W 005°25'0 0.0
2017-Mar-05 23:32N 36°10' W 005°26'0 0.0
2017-Mar-05 22:33N 36°10' W 005°26'3 3.3
2017-Mar-05 21:33N 36°07' W 005°23'9 9.4
2017-Mar-05 20:33N 36°04' W 005°12'1212.3
2017-Mar-05 19:33N 36°05' W 004°57'  
2017-Mar-03 02:21N 36°34' E 012°52'1415.1
2017-Mar-03 01:25N 36°26' E 013°07'1314.3
2017-Mar-03 00:32N 36°19' E 013°20'1515.2
2017-Mar-02 23:33N 36°11' E 013°35'1615.3
2017-Mar-02 22:33N 36°02' E 013°51'1514.8
2017-Mar-02 21:33N 35°54' E 014°06'1514.6
2017-Mar-02 20:33N 35°46' E 014°21'1414.4
2017-Mar-02 19:33N 35°44' E 014°39'9 8.7
2017-Mar-02 18:29N 35°47' E 014°50'0 0.0
2017-Mar-02 09:30N 35°47' E 014°50'0 0.0
2017-Mar-02 08:33N 35°47' E 014°50'0 0.0
2017-Mar-02 07:33N 35°47' E 014°50'0 0.0
2017-Mar-02 06:17N 35°47' E 014°50'0 0.0
2017-Mar-02 04:25N 35°47' E 014°50'0 0.0
2017-Mar-02 03:25N 35°47' E 014°50'0 0.0
2017-Mar-02 02:33N 35°47' E 014°50'0 0.0
2017-Mar-02 01:33N 35°47' E 014°50'0 0.0
2017-Mar-01 17:05N 35°47' E 014°50'0 0.0
2017-Mar-01 11:33N 35°47' E 014°50'0 0.0
2017-Mar-01 06:31N 35°47' E 014°50'0 0.0
2017-Mar-01 05:27N 35°47' E 014°50'0 0.0
2017-Mar-01 04:30N 35°47' E 014°50'0 0.0
2017-Mar-01 02:08N 35°47' E 014°50'0 0.1
2017-Mar-01 01:32N 35°47' E 014°50'0 0.0
2017-Feb-28 15:33N 35°47' E 014°50'0 0.0
2017-Feb-26 14:15N 35°47' E 014°50'0 0.0
2017-Feb-26 13:33N 35°47' E 014°50'0 0.0
2017-Feb-26 12:32N 35°47' E 014°50'0 0.0
2017-Feb-25 18:27N 35°47' E 014°50'0 0.0
2017-Feb-25 17:15N 35°47' E 014°50'0 0.0
2017-Feb-25 16:32N 35°47' E 014°50'0 0.0
2017-Feb-25 15:32N 35°47' E 014°50'0 0.0
2017-Feb-25 14:20N 35°47' E 014°50'0 0.0
2017-Feb-25 13:25N 35°47' E 014°50'0 0.0
2017-Feb-25 12:28N 35°47' E 014°50'0 0.0
2017-Feb-25 08:11N 35°47' E 014°50'0 0.0
2017-Feb-25 06:28N 35°47' E 014°50'0 0.0
2017-Feb-25 05:25N 35°47' E 014°50'0 0.0
2017-Feb-25 04:33N 35°47' E 014°50'0 0.1
2017-Feb-25 03:30N 35°47' E 014°50'0 0.0
2017-Feb-25 02:32N 35°47' E 014°50'0 0.0
2017-Feb-25 01:32N 35°47' E 014°50'0 0.0
2017-Feb-25 00:32N 35°47' E 014°50'0 0.0
2017-Feb-24 23:31N 35°47' E 014°50'0 0.0
2017-Feb-24 22:31N 35°47' E 014°50'0 0.0
2017-Feb-24 21:33N 35°47' E 014°50'0 0.0
2017-Feb-24 20:33N 35°47' E 014°50'0 0.0
2017-Feb-24 19:32N 35°47' E 014°50'0 0.0
2017-Feb-24 18:32N 35°47' E 014°50'0 0.0
2017-Feb-24 17:32N 35°47' E 014°50'0 0.0
2017-Feb-24 16:31N 35°47' E 014°50'0 0.0
2017-Feb-24 15:31N 35°47' E 014°50'0 0.1
2017-Feb-24 14:33N 35°47' E 014°50'0 0.0
2017-Feb-24 13:33N 35°47' E 014°50'0 0.0
2017-Feb-24 12:32N 35°47' E 014°50'  

Dump ship's entire track history